sensor_id;sensor_type;location;lat;lon;timestamp;P1;durP1;ratioP1;P2;durP2;ratioP2
13764;SDS011;6953;48.810;9.204;2023-08-30T00:00:56;0.30;;;0.30;;
13764;SDS011;6953;48.810;9.204;2023-08-30T00:03:21;0.30;;;0.30;;
13764;SDS011;6953;48.810;9.204;2023-08-30T00:05:47;0.30;;;0.30;;
13764;SDS011;6953;48.810;9.204;2023-08-30T00:08:12;0.50;;;0.50;;
13764;SDS011;6953;48.810;9.204;2023-08-30T00:10:38;0.40;;;0.40;;
13764;SDS011;6953;48.810;9.204;2023-08-30T00:13:04;0.40;;;0.40;;
13764;SDS011;6953;48.810;9.204;2023-08-30T00:15:30;0.35;;;0.35;;
13764;SDS011;6953;48.810;9.204;2023-08-30T00:17:55;0.30;;;0.30;;
13764;SDS011;6953;48.810;9.204;2023-08-30T00:20:20;0.30;;;0.30;;
13764;SDS011;6953;48.810;9.204;2023-08-30T00:22:46;0.30;;;0.30;;
13764;SDS011;6953;48.810;9.204;2023-08-30T00:25:13;0.30;;;0.30;;
13764;SDS011;6953;48.810;9.204;2023-08-30T00:27:38;0.30;;;0.30;;
13764;SDS011;6953;48.810;9.204;2023-08-30T00:30:04;0.32;;;0.32;;
13764;SDS011;6953;48.810;9.204;2023-08-30T00:32:30;0.30;;;0.30;;
13764;SDS011;6953;48.810;9.204;2023-08-30T00:34:55;0.22;;;0.22;;
13764;SDS011;6953;48.810;9.204;2023-08-30T00:37:20;0.40;;;0.40;;
13764;SDS011;6953;48.810;9.204;2023-08-30T00:39:46;0.32;;;0.32;;
13764;SDS011;6953;48.810;9.204;2023-08-30T00:42:11;0.40;;;0.40;;
13764;SDS011;6953;48.810;9.204;2023-08-30T00:44:36;0.40;;;0.40;;
13764;SDS011;6953;48.810;9.204;2023-08-30T00:47:02;0.30;;;0.30;;
13764;SDS011;6953;48.810;9.204;2023-08-30T00:49:29;0.40;;;0.40;;
13764;SDS011;6953;48.810;9.204;2023-08-30T00:51:55;0.40;;;0.40;;
13764;SDS011;6953;48.810;9.204;2023-08-30T00:54:22;0.35;;;0.35;;
13764;SDS011;6953;48.810;9.204;2023-08-30T00:56:48;0.30;;;0.30;;
13764;SDS011;6953;48.810;9.204;2023-08-30T00:59:15;0.30;;;0.30;;
13764;SDS011;6953;48.810;9.204;2023-08-30T01:01:40;0.35;;;0.35;;
13764;SDS011;6953;48.810;9.204;2023-08-30T01:04:06;0.40;;;0.40;;
13764;SDS011;6953;48.810;9.204;2023-08-30T01:06:31;0.30;;;0.30;;
13764;SDS011;6953;48.810;9.204;2023-08-30T01:08:57;0.38;;;0.38;;
13764;SDS011;6953;48.810;9.204;2023-08-30T01:12:07;0.30;;;0.30;;
13764;SDS011;6953;48.810;9.204;2023-08-30T01:14:18;0.40;;;0.40;;
13764;SDS011;6953;48.810;9.204;2023-08-30T01:16:47;0.40;;;0.40;;
13764;SDS011;6953;48.810;9.204;2023-08-30T01:19:22;0.40;;;0.40;;
13764;SDS011;6953;48.810;9.204;2023-08-30T01:22:08;0.38;;;0.38;;
13764;SDS011;6953;48.810;9.204;2023-08-30T01:24:45;0.40;;;0.40;;
13764;SDS011;6953;48.810;9.204;2023-08-30T01:27:22;0.40;;;0.40;;
13764;SDS011;6953;48.810;9.204;2023-08-30T01:29:49;0.40;;;0.40;;
13764;SDS011;6953;48.810;9.204;2023-08-30T01:32:19;0.40;;;0.40;;
13764;SDS011;6953;48.810;9.204;2023-08-30T01:34:45;0.30;;;0.30;;
13764;SDS011;6953;48.810;9.204;2023-08-30T01:37:13;0.40;;;0.40;;
13764;SDS011;6953;48.810;9.204;2023-08-30T01:39:39;0.40;;;0.40;;
13764;SDS011;6953;48.810;9.204;2023-08-30T01:42:07;0.35;;;0.35;;
13764;SDS011;6953;48.810;9.204;2023-08-30T01:44:33;0.30;;;0.30;;
13764;SDS011;6953;48.810;9.204;2023-08-30T01:47:00;0.40;;;0.40;;
13764;SDS011;6953;48.810;9.204;2023-08-30T01:49:26;0.30;;;0.30;;
13764;SDS011;6953;48.810;9.204;2023-08-30T01:51:52;0.40;;;0.40;;
13764;SDS011;6953;48.810;9.204;2023-08-30T01:54:18;0.40;;;0.40;;
13764;SDS011;6953;48.810;9.204;2023-08-30T01:56:45;0.40;;;0.40;;
13764;SDS011;6953;48.810;9.204;2023-08-30T01:59:11;0.30;;;0.30;;
13764;SDS011;6953;48.810;9.204;2023-08-30T02:01:37;0.40;;;0.40;;
13764;SDS011;6953;48.810;9.204;2023-08-30T02:04:02;0.40;;;0.40;;
13764;SDS011;6953;48.810;9.204;2023-08-30T02:06:30;0.40;;;0.40;;
13764;SDS011;6953;48.810;9.204;2023-08-30T02:09:14;0.30;;;0.30;;
13764;SDS011;6953;48.810;9.204;2023-08-30T02:11:46;0.30;;;0.30;;
13764;SDS011;6953;48.810;9.204;2023-08-30T02:14:15;0.20;;;0.20;;
13764;SDS011;6953;48.810;9.204;2023-08-30T02:16:43;0.30;;;0.30;;
13764;SDS011;6953;48.810;9.204;2023-08-30T02:19:10;0.40;;;0.40;;
13764;SDS011;6953;48.810;9.204;2023-08-30T02:21:37;0.40;;;0.40;;
13764;SDS011;6953;48.810;9.204;2023-08-30T02:24:04;0.40;;;0.40;;
13764;SDS011;6953;48.810;9.204;2023-08-30T02:26:30;0.40;;;0.40;;
13764;SDS011;6953;48.810;9.204;2023-08-30T02:28:55;0.30;;;0.30;;
13764;SDS011;6953;48.810;9.204;2023-08-30T02:31:20;0.40;;;0.40;;
13764;SDS011;6953;48.810;9.204;2023-08-30T02:33:45;0.40;;;0.40;;
13764;SDS011;6953;48.810;9.204;2023-08-30T02:36:11;0.40;;;0.40;;
13764;SDS011;6953;48.810;9.204;2023-08-30T02:38:36;0.38;;;0.38;;
13764;SDS011;6953;48.810;9.204;2023-08-30T02:41:01;0.30;;;0.30;;
13764;SDS011;6953;48.810;9.204;2023-08-30T02:43:27;0.38;;;0.38;;
13764;SDS011;6953;48.810;9.204;2023-08-30T02:45:53;0.40;;;0.40;;
13764;SDS011;6953;48.810;9.204;2023-08-30T02:48:18;0.40;;;0.40;;
13764;SDS011;6953;48.810;9.204;2023-08-30T02:50:44;0.40;;;0.40;;
13764;SDS011;6953;48.810;9.204;2023-08-30T02:53:09;0.40;;;0.40;;
13764;SDS011;6953;48.810;9.204;2023-08-30T02:55:34;0.40;;;0.40;;
13764;SDS011;6953;48.810;9.204;2023-08-30T02:58:00;0.30;;;0.30;;
13764;SDS011;6953;48.810;9.204;2023-08-30T03:00:26;0.32;;;0.32;;
13764;SDS011;6953;48.810;9.204;2023-08-30T03:02:51;0.30;;;0.30;;
13764;SDS011;6953;48.810;9.204;2023-08-30T03:05:17;0.30;;;0.30;;
13764;SDS011;6953;48.810;9.204;2023-08-30T03:07:42;0.30;;;0.30;;
13764;SDS011;6953;48.810;9.204;2023-08-30T03:10:08;0.30;;;0.30;;
13764;SDS011;6953;48.810;9.204;2023-08-30T03:12:34;0.40;;;0.40;;
13764;SDS011;6953;48.810;9.204;2023-08-30T03:14:59;0.40;;;0.40;;
13764;SDS011;6953;48.810;9.204;2023-08-30T03:17:25;0.40;;;0.40;;
13764;SDS011;6953;48.810;9.204;2023-08-30T03:19:53;0.35;;;0.35;;
13764;SDS011;6953;48.810;9.204;2023-08-30T03:22:18;0.40;;;0.40;;
13764;SDS011;6953;48.810;9.204;2023-08-30T03:24:44;0.28;;;0.28;;
13764;SDS011;6953;48.810;9.204;2023-08-30T03:27:09;0.30;;;0.30;;
13764;SDS011;6953;48.810;9.204;2023-08-30T03:29:34;0.40;;;0.40;;
13764;SDS011;6953;48.810;9.204;2023-08-30T03:31:59;0.30;;;0.30;;
13764;SDS011;6953;48.810;9.204;2023-08-30T03:34:25;0.30;;;0.30;;
13764;SDS011;6953;48.810;9.204;2023-08-30T03:36:50;0.40;;;0.40;;
13764;SDS011;6953;48.810;9.204;2023-08-30T03:39:19;0.30;;;0.30;;
13764;SDS011;6953;48.810;9.204;2023-08-30T03:41:48;0.40;;;0.40;;
13764;SDS011;6953;48.810;9.204;2023-08-30T03:44:14;0.28;;;0.28;;
13764;SDS011;6953;48.810;9.204;2023-08-30T03:46:39;0.32;;;0.32;;
13764;SDS011;6953;48.810;9.204;2023-08-30T03:49:04;0.40;;;0.40;;
13764;SDS011;6953;48.810;9.204;2023-08-30T03:51:30;0.40;;;0.40;;
13764;SDS011;6953;48.810;9.204;2023-08-30T03:53:55;0.30;;;0.30;;
13764;SDS011;6953;48.810;9.204;2023-08-30T03:56:23;0.30;;;0.30;;
13764;SDS011;6953;48.810;9.204;2023-08-30T03:58:48;0.30;;;0.30;;
13764;SDS011;6953;48.810;9.204;2023-08-30T04:01:14;0.30;;;0.30;;
13764;SDS011;6953;48.810;9.204;2023-08-30T04:03:39;0.30;;;0.30;;
13764;SDS011;6953;48.810;9.204;2023-08-30T04:06:04;0.30;;;0.30;;
13764;SDS011;6953;48.810;9.204;2023-08-30T04:08:30;0.40;;;0.40;;
13764;SDS011;6953;48.810;9.204;2023-08-30T04:10:55;0.30;;;0.30;;
13764;SDS011;6953;48.810;9.204;2023-08-30T04:13:21;0.30;;;0.30;;
13764;SDS011;6953;48.810;9.204;2023-08-30T04:15:47;0.40;;;0.40;;
13764;SDS011;6953;48.810;9.204;2023-08-30T04:18:12;0.30;;;0.30;;
13764;SDS011;6953;48.810;9.204;2023-08-30T04:20:42;0.20;;;0.20;;
13764;SDS011;6953;48.810;9.204;2023-08-30T04:23:11;0.30;;;0.30;;
13764;SDS011;6953;48.810;9.204;2023-08-30T04:25:36;0.30;;;0.30;;
13764;SDS011;6953;48.810;9.204;2023-08-30T04:28:02;0.30;;;0.30;;
13764;SDS011;6953;48.810;9.204;2023-08-30T04:30:28;0.30;;;0.30;;
13764;SDS011;6953;48.810;9.204;2023-08-30T04:32:53;0.30;;;0.30;;
13764;SDS011;6953;48.810;9.204;2023-08-30T04:35:18;0.30;;;0.30;;
13764;SDS011;6953;48.810;9.204;2023-08-30T04:37:44;0.30;;;0.30;;
13764;SDS011;6953;48.810;9.204;2023-08-30T04:40:09;0.40;;;0.40;;
13764;SDS011;6953;48.810;9.204;2023-08-30T04:42:35;0.30;;;0.30;;
13764;SDS011;6953;48.810;9.204;2023-08-30T04:45:01;0.30;;;0.30;;
13764;SDS011;6953;48.810;9.204;2023-08-30T04:47:28;0.20;;;0.20;;
13764;SDS011;6953;48.810;9.204;2023-08-30T04:49:53;0.30;;;0.30;;
13764;SDS011;6953;48.810;9.204;2023-08-30T04:52:19;0.30;;;0.30;;
13764;SDS011;6953;48.810;9.204;2023-08-30T04:54:44;0.30;;;0.30;;
13764;SDS011;6953;48.810;9.204;2023-08-30T04:57:10;0.30;;;0.30;;
13764;SDS011;6953;48.810;9.204;2023-08-30T04:59:39;0.30;;;0.30;;
13764;SDS011;6953;48.810;9.204;2023-08-30T05:02:05;0.30;;;0.30;;
13764;SDS011;6953;48.810;9.204;2023-08-30T05:04:31;0.40;;;0.40;;
13764;SDS011;6953;48.810;9.204;2023-08-30T05:06:57;0.40;;;0.40;;
13764;SDS011;6953;48.810;9.204;2023-08-30T05:09:22;0.30;;;0.30;;
13764;SDS011;6953;48.810;9.204;2023-08-30T05:11:49;0.30;;;0.30;;
13764;SDS011;6953;48.810;9.204;2023-08-30T05:14:18;0.30;;;0.30;;
13764;SDS011;6953;48.810;9.204;2023-08-30T05:16:44;0.40;;;0.40;;
13764;SDS011;6953;48.810;9.204;2023-08-30T05:19:09;0.30;;;0.30;;
13764;SDS011;6953;48.810;9.204;2023-08-30T05:21:34;0.30;;;0.30;;
13764;SDS011;6953;48.810;9.204;2023-08-30T05:24:00;0.40;;;0.40;;
13764;SDS011;6953;48.810;9.204;2023-08-30T05:26:25;0.40;;;0.40;;
13764;SDS011;6953;48.810;9.204;2023-08-30T05:28:50;0.40;;;0.40;;
13764;SDS011;6953;48.810;9.204;2023-08-30T05:31:16;0.30;;;0.30;;
13764;SDS011;6953;48.810;9.204;2023-08-30T05:33:41;0.40;;;0.40;;
13764;SDS011;6953;48.810;9.204;2023-08-30T05:36:06;0.32;;;0.32;;
13764;SDS011;6953;48.810;9.204;2023-08-30T05:38:31;0.30;;;0.30;;
13764;SDS011;6953;48.810;9.204;2023-08-30T05:40:57;0.30;;;0.30;;
13764;SDS011;6953;48.810;9.204;2023-08-30T05:43:22;0.30;;;0.30;;
13764;SDS011;6953;48.810;9.204;2023-08-30T05:45:47;0.30;;;0.30;;
13764;SDS011;6953;48.810;9.204;2023-08-30T05:48:12;0.40;;;0.40;;
13764;SDS011;6953;48.810;9.204;2023-08-30T05:50:38;0.30;;;0.30;;
13764;SDS011;6953;48.810;9.204;2023-08-30T05:53:04;0.30;;;0.30;;
13764;SDS011;6953;48.810;9.204;2023-08-30T05:55:29;0.20;;;0.20;;
13764;SDS011;6953;48.810;9.204;2023-08-30T05:57:55;0.40;;;0.40;;
13764;SDS011;6953;48.810;9.204;2023-08-30T06:00:20;0.40;;;0.40;;
13764;SDS011;6953;48.810;9.204;2023-08-30T06:02:46;0.30;;;0.30;;
13764;SDS011;6953;48.810;9.204;2023-08-30T06:05:11;0.30;;;0.30;;
13764;SDS011;6953;48.810;9.204;2023-08-30T06:07:36;0.30;;;0.30;;
13764;SDS011;6953;48.810;9.204;2023-08-30T06:10:02;0.30;;;0.30;;
13764;SDS011;6953;48.810;9.204;2023-08-30T06:12:27;0.20;;;0.20;;
13764;SDS011;6953;48.810;9.204;2023-08-30T06:14:53;0.30;;;0.30;;
13764;SDS011;6953;48.810;9.204;2023-08-30T06:17:18;0.30;;;0.30;;
13764;SDS011;6953;48.810;9.204;2023-08-30T06:19:44;0.30;;;0.30;;
13764;SDS011;6953;48.810;9.204;2023-08-30T06:22:10;0.30;;;0.30;;
13764;SDS011;6953;48.810;9.204;2023-08-30T06:24:36;0.30;;;0.30;;
13764;SDS011;6953;48.810;9.204;2023-08-30T06:27:02;0.25;;;0.25;;
13764;SDS011;6953;48.810;9.204;2023-08-30T06:29:27;0.22;;;0.22;;
13764;SDS011;6953;48.810;9.204;2023-08-30T06:31:52;0.22;;;0.22;;
13764;SDS011;6953;48.810;9.204;2023-08-30T06:34:17;0.30;;;0.30;;
13764;SDS011;6953;48.810;9.204;2023-08-30T06:36:43;0.30;;;0.30;;
13764;SDS011;6953;48.810;9.204;2023-08-30T06:39:08;0.30;;;0.30;;
13764;SDS011;6953;48.810;9.204;2023-08-30T06:41:33;0.25;;;0.25;;
13764;SDS011;6953;48.810;9.204;2023-08-30T06:43:58;0.30;;;0.30;;
13764;SDS011;6953;48.810;9.204;2023-08-30T06:46:24;0.20;;;0.20;;
13764;SDS011;6953;48.810;9.204;2023-08-30T06:48:49;0.22;;;0.22;;
13764;SDS011;6953;48.810;9.204;2023-08-30T06:51:14;0.20;;;0.20;;
13764;SDS011;6953;48.810;9.204;2023-08-30T06:53:39;0.30;;;0.30;;
13764;SDS011;6953;48.810;9.204;2023-08-30T06:56:05;0.30;;;0.30;;
13764;SDS011;6953;48.810;9.204;2023-08-30T06:58:30;0.20;;;0.20;;
13764;SDS011;6953;48.810;9.204;2023-08-30T07:00:56;0.20;;;0.20;;
13764;SDS011;6953;48.810;9.204;2023-08-30T07:03:22;0.30;;;0.30;;
13764;SDS011;6953;48.810;9.204;2023-08-30T07:05:47;0.20;;;0.20;;
13764;SDS011;6953;48.810;9.204;2023-08-30T07:08:14;0.20;;;0.20;;
13764;SDS011;6953;48.810;9.204;2023-08-30T07:10:39;0.20;;;0.20;;
13764;SDS011;6953;48.810;9.204;2023-08-30T07:13:05;0.22;;;0.22;;
13764;SDS011;6953;48.810;9.204;2023-08-30T07:15:35;0.20;;;0.20;;
13764;SDS011;6953;48.810;9.204;2023-08-30T07:18:01;0.25;;;0.25;;
13764;SDS011;6953;48.810;9.204;2023-08-30T07:20:26;0.20;;;0.20;;
13764;SDS011;6953;48.810;9.204;2023-08-30T07:22:51;0.30;;;0.30;;
13764;SDS011;6953;48.810;9.204;2023-08-30T07:25:17;0.30;;;0.30;;
13764;SDS011;6953;48.810;9.204;2023-08-30T07:27:42;0.30;;;0.30;;
13764;SDS011;6953;48.810;9.204;2023-08-30T07:30:08;0.30;;;0.30;;
13764;SDS011;6953;48.810;9.204;2023-08-30T07:32:33;0.30;;;0.30;;
13764;SDS011;6953;48.810;9.204;2023-08-30T07:35:01;0.20;;;0.20;;
13764;SDS011;6953;48.810;9.204;2023-08-30T07:37:26;0.30;;;0.30;;
13764;SDS011;6953;48.810;9.204;2023-08-30T07:39:52;0.25;;;0.25;;
13764;SDS011;6953;48.810;9.204;2023-08-30T07:42:17;0.20;;;0.20;;
13764;SDS011;6953;48.810;9.204;2023-08-30T07:44:43;0.20;;;0.20;;
13764;SDS011;6953;48.810;9.204;2023-08-30T07:47:08;0.38;;;0.38;;
13764;SDS011;6953;48.810;9.204;2023-08-30T07:49:34;0.30;;;0.30;;
13764;SDS011;6953;48.810;9.204;2023-08-30T07:51:59;0.30;;;0.30;;
13764;SDS011;6953;48.810;9.204;2023-08-30T07:54:24;0.30;;;0.30;;
13764;SDS011;6953;48.810;9.204;2023-08-30T07:56:49;0.20;;;0.20;;
13764;SDS011;6953;48.810;9.204;2023-08-30T07:59:15;0.30;;;0.30;;
13764;SDS011;6953;48.810;9.204;2023-08-30T08:01:40;0.20;;;0.20;;
13764;SDS011;6953;48.810;9.204;2023-08-30T08:04:05;0.20;;;0.20;;
13764;SDS011;6953;48.810;9.204;2023-08-30T08:06:31;0.30;;;0.30;;
13764;SDS011;6953;48.810;9.204;2023-08-30T08:08:56;0.20;;;0.20;;
13764;SDS011;6953;48.810;9.204;2023-08-30T08:11:21;0.20;;;0.20;;
13764;SDS011;6953;48.810;9.204;2023-08-30T08:13:47;0.20;;;0.20;;
13764;SDS011;6953;48.810;9.204;2023-08-30T08:16:12;0.20;;;0.20;;
13764;SDS011;6953;48.810;9.204;2023-08-30T08:18:37;0.20;;;0.20;;
13764;SDS011;6953;48.810;9.204;2023-08-30T08:21:03;0.20;;;0.20;;
13764;SDS011;6953;48.810;9.204;2023-08-30T08:23:29;0.10;;;0.10;;
13764;SDS011;6953;48.810;9.204;2023-08-30T08:26:00;0.20;;;0.20;;
13764;SDS011;6953;48.810;9.204;2023-08-30T08:28:27;0.17;;;0.17;;
13764;SDS011;6953;48.810;9.204;2023-08-30T08:30:52;0.20;;;0.20;;
13764;SDS011;6953;48.810;9.204;2023-08-30T08:33:18;0.20;;;0.20;;
13764;SDS011;6953;48.810;9.204;2023-08-30T08:35:43;0.20;;;0.20;;
13764;SDS011;6953;48.810;9.204;2023-08-30T08:38:09;0.10;;;0.10;;
13764;SDS011;6953;48.810;9.204;2023-08-30T08:40:38;0.10;;;0.10;;
13764;SDS011;6953;48.810;9.204;2023-08-30T08:43:06;0.20;;;0.20;;
13764;SDS011;6953;48.810;9.204;2023-08-30T08:45:34;0.20;;;0.20;;
13764;SDS011;6953;48.810;9.204;2023-08-30T08:48:02;0.20;;;0.20;;
13764;SDS011;6953;48.810;9.204;2023-08-30T08:50:29;0.10;;;0.10;;
13764;SDS011;6953;48.810;9.204;2023-08-30T08:52:54;0.10;;;0.10;;
13764;SDS011;6953;48.810;9.204;2023-08-30T08:55:22;0.20;;;0.20;;
13764;SDS011;6953;48.810;9.204;2023-08-30T08:57:48;0.10;;;0.10;;
13764;SDS011;6953;48.810;9.204;2023-08-30T09:00:13;0.10;;;0.10;;
13764;SDS011;6953;48.810;9.204;2023-08-30T09:02:39;0.05;;;0.05;;
13764;SDS011;6953;48.810;9.204;2023-08-30T09:05:05;0.03;;;0.03;;
13764;SDS011;6953;48.810;9.204;2023-08-30T09:07:32;0.00;;;0.00;;
13764;SDS011;6953;48.810;9.204;2023-08-30T09:09:58;0.10;;;0.10;;
13764;SDS011;6953;48.810;9.204;2023-08-30T09:12:23;0.10;;;0.10;;
13764;SDS011;6953;48.810;9.204;2023-08-30T09:14:55;0.10;;;0.10;;
13764;SDS011;6953;48.810;9.204;2023-08-30T09:17:21;0.10;;;0.10;;
13764;SDS011;6953;48.810;9.204;2023-08-30T09:19:46;0.00;;;0.00;;
13764;SDS011;6953;48.810;9.204;2023-08-30T09:22:12;0.00;;;0.00;;
13764;SDS011;6953;48.810;9.204;2023-08-30T09:24:40;0.05;;;0.05;;
13764;SDS011;6953;48.810;9.204;2023-08-30T09:27:06;0.00;;;0.00;;
13764;SDS011;6953;48.810;9.204;2023-08-30T09:29:32;0.00;;;0.00;;
13764;SDS011;6953;48.810;9.204;2023-08-30T09:31:57;0.00;;;0.00;;
13764;SDS011;6953;48.810;9.204;2023-08-30T09:34:26;0.00;;;0.00;;
13764;SDS011;6953;48.810;9.204;2023-08-30T09:36:52;0.00;;;0.00;;
13764;SDS011;6953;48.810;9.204;2023-08-30T09:39:18;0.00;;;0.00;;
13764;SDS011;6953;48.810;9.204;2023-08-30T09:41:44;0.00;;;0.00;;
13764;SDS011;6953;48.810;9.204;2023-08-30T09:44:11;0.00;;;0.00;;
13764;SDS011;6953;48.810;9.204;2023-08-30T09:46:44;0.10;;;0.10;;
13764;SDS011;6953;48.810;9.204;2023-08-30T09:49:11;0.00;;;0.00;;
13764;SDS011;6953;48.810;9.204;2023-08-30T09:51:37;0.00;;;0.00;;
13764;SDS011;6953;48.810;9.204;2023-08-30T09:54:06;0.10;;;0.10;;
13764;SDS011;6953;48.810;9.204;2023-08-30T09:56:38;0.00;;;0.00;;
13764;SDS011;6953;48.810;9.204;2023-08-30T09:59:05;0.00;;;0.00;;
13764;SDS011;6953;48.810;9.204;2023-08-30T10:01:30;0.10;;;0.10;;
13764;SDS011;6953;48.810;9.204;2023-08-30T10:03:56;0.10;;;0.10;;
13764;SDS011;6953;48.810;9.204;2023-08-30T10:06:21;0.05;;;0.05;;
13764;SDS011;6953;48.810;9.204;2023-08-30T10:08:49;0.00;;;0.00;;
13764;SDS011;6953;48.810;9.204;2023-08-30T10:11:18;0.00;;;0.00;;
13764;SDS011;6953;48.810;9.204;2023-08-30T10:13:44;0.03;;;0.03;;
13764;SDS011;6953;48.810;9.204;2023-08-30T10:16:12;0.00;;;0.00;;
13764;SDS011;6953;48.810;9.204;2023-08-30T10:18:43;0.00;;;0.00;;
13764;SDS011;6953;48.810;9.204;2023-08-30T10:21:12;0.00;;;0.00;;
13764;SDS011;6953;48.810;9.204;2023-08-30T10:23:38;0.00;;;0.00;;
13764;SDS011;6953;48.810;9.204;2023-08-30T10:26:04;0.00;;;0.00;;
13764;SDS011;6953;48.810;9.204;2023-08-30T10:28:32;0.00;;;0.00;;
13764;SDS011;6953;48.810;9.204;2023-08-30T10:31:00;0.00;;;0.00;;
13764;SDS011;6953;48.810;9.204;2023-08-30T10:33:26;0.00;;;0.00;;
13764;SDS011;6953;48.810;9.204;2023-08-30T10:35:51;0.00;;;0.00;;
13764;SDS011;6953;48.810;9.204;2023-08-30T10:38:26;0.00;;;0.00;;
13764;SDS011;6953;48.810;9.204;2023-08-30T10:40:53;0.00;;;0.00;;
13764;SDS011;6953;48.810;9.204;2023-08-30T10:43:31;0.00;;;0.00;;
13764;SDS011;6953;48.810;9.204;2023-08-30T10:46:03;0.00;;;0.00;;
13764;SDS011;6953;48.810;9.204;2023-08-30T10:48:37;0.00;;;0.00;;
13764;SDS011;6953;48.810;9.204;2023-08-30T10:51:04;0.00;;;0.00;;
13764;SDS011;6953;48.810;9.204;2023-08-30T10:53:32;0.00;;;0.00;;
13764;SDS011;6953;48.810;9.204;2023-08-30T10:56:10;0.00;;;0.00;;
13764;SDS011;6953;48.810;9.204;2023-08-30T10:58:39;0.00;;;0.00;;
13764;SDS011;6953;48.810;9.204;2023-08-30T11:01:10;0.00;;;0.00;;
13764;SDS011;6953;48.810;9.204;2023-08-30T11:03:39;0.00;;;0.00;;
13764;SDS011;6953;48.810;9.204;2023-08-30T11:06:06;0.00;;;0.00;;
13764;SDS011;6953;48.810;9.204;2023-08-30T11:08:32;0.00;;;0.00;;
13764;SDS011;6953;48.810;9.204;2023-08-30T11:11:01;0.00;;;0.00;;
13764;SDS011;6953;48.810;9.204;2023-08-30T11:13:28;0.00;;;0.00;;
13764;SDS011;6953;48.810;9.204;2023-08-30T11:15:54;0.10;;;0.10;;
13764;SDS011;6953;48.810;9.204;2023-08-30T11:18:19;0.10;;;0.10;;
13764;SDS011;6953;48.810;9.204;2023-08-30T11:20:44;0.00;;;0.00;;
13764;SDS011;6953;48.810;9.204;2023-08-30T11:23:10;0.00;;;0.00;;
13764;SDS011;6953;48.810;9.204;2023-08-30T11:25:35;0.03;;;0.03;;
13764;SDS011;6953;48.810;9.204;2023-08-30T11:28:03;0.00;;;0.00;;
13764;SDS011;6953;48.810;9.204;2023-08-30T11:30:29;0.00;;;0.00;;
13764;SDS011;6953;48.810;9.204;2023-08-30T11:32:54;0.00;;;0.00;;
13764;SDS011;6953;48.810;9.204;2023-08-30T11:35:22;0.00;;;0.00;;
13764;SDS011;6953;48.810;9.204;2023-08-30T11:37:47;0.10;;;0.10;;
13764;SDS011;6953;48.810;9.204;2023-08-30T11:40:13;0.00;;;0.00;;
13764;SDS011;6953;48.810;9.204;2023-08-30T11:42:39;0.10;;;0.10;;
13764;SDS011;6953;48.810;9.204;2023-08-30T11:45:04;0.10;;;0.10;;
13764;SDS011;6953;48.810;9.204;2023-08-30T11:47:30;0.10;;;0.10;;
13764;SDS011;6953;48.810;9.204;2023-08-30T11:49:56;0.10;;;0.10;;
13764;SDS011;6953;48.810;9.204;2023-08-30T11:52:22;0.10;;;0.10;;
13764;SDS011;6953;48.810;9.204;2023-08-30T11:54:48;0.10;;;0.10;;
13764;SDS011;6953;48.810;9.204;2023-08-30T11:57:14;0.10;;;0.10;;
13764;SDS011;6953;48.810;9.204;2023-08-30T11:59:40;0.20;;;0.20;;
13764;SDS011;6953;48.810;9.204;2023-08-30T12:02:06;0.13;;;0.13;;
13764;SDS011;6953;48.810;9.204;2023-08-30T12:04:32;0.10;;;0.10;;
13764;SDS011;6953;48.810;9.204;2023-08-30T12:06:57;0.20;;;0.20;;
13764;SDS011;6953;48.810;9.204;2023-08-30T12:09:29;0.20;;;0.20;;
13764;SDS011;6953;48.810;9.204;2023-08-30T12:12:04;0.20;;;0.20;;
13764;SDS011;6953;48.810;9.204;2023-08-30T12:14:33;0.20;;;0.20;;
13764;SDS011;6953;48.810;9.204;2023-08-30T12:17:00;0.20;;;0.20;;
13764;SDS011;6953;48.810;9.204;2023-08-30T12:19:25;0.20;;;0.20;;
13764;SDS011;6953;48.810;9.204;2023-08-30T12:21:53;0.20;;;0.20;;
13764;SDS011;6953;48.810;9.204;2023-08-30T12:24:18;0.20;;;0.20;;
13764;SDS011;6953;48.810;9.204;2023-08-30T12:26:43;0.20;;;0.20;;
13764;SDS011;6953;48.810;9.204;2023-08-30T12:29:09;0.20;;;0.20;;
13764;SDS011;6953;48.810;9.204;2023-08-30T12:31:34;0.20;;;0.20;;
13764;SDS011;6953;48.810;9.204;2023-08-30T12:33:59;0.20;;;0.20;;
13764;SDS011;6953;48.810;9.204;2023-08-30T12:36:24;0.20;;;0.20;;
13764;SDS011;6953;48.810;9.204;2023-08-30T12:38:50;0.20;;;0.20;;
13764;SDS011;6953;48.810;9.204;2023-08-30T12:41:15;0.25;;;0.25;;
13764;SDS011;6953;48.810;9.204;2023-08-30T12:43:41;0.20;;;0.20;;
13764;SDS011;6953;48.810;9.204;2023-08-30T12:46:06;0.20;;;0.20;;
13764;SDS011;6953;48.810;9.204;2023-08-30T12:48:32;0.20;;;0.20;;
13764;SDS011;6953;48.810;9.204;2023-08-30T12:50:58;0.20;;;0.20;;
13764;SDS011;6953;48.810;9.204;2023-08-30T12:53:23;0.20;;;0.20;;
13764;SDS011;6953;48.810;9.204;2023-08-30T12:55:48;0.20;;;0.20;;
13764;SDS011;6953;48.810;9.204;2023-08-30T12:58:13;0.20;;;0.20;;
13764;SDS011;6953;48.810;9.204;2023-08-30T13:00:39;0.20;;;0.20;;
13764;SDS011;6953;48.810;9.204;2023-08-30T13:03:04;0.20;;;0.20;;
13764;SDS011;6953;48.810;9.204;2023-08-30T13:05:30;0.20;;;0.20;;
13764;SDS011;6953;48.810;9.204;2023-08-30T13:07:57;0.20;;;0.20;;
13764;SDS011;6953;48.810;9.204;2023-08-30T13:10:22;0.10;;;0.10;;
13764;SDS011;6953;48.810;9.204;2023-08-30T13:12:48;0.20;;;0.20;;
13764;SDS011;6953;48.810;9.204;2023-08-30T13:15:13;0.20;;;0.20;;
13764;SDS011;6953;48.810;9.204;2023-08-30T13:17:38;0.20;;;0.20;;
13764;SDS011;6953;48.810;9.204;2023-08-30T13:20:04;0.10;;;0.10;;
13764;SDS011;6953;48.810;9.204;2023-08-30T13:22:30;0.10;;;0.10;;
13764;SDS011;6953;48.810;9.204;2023-08-30T13:24:55;0.17;;;0.17;;
13764;SDS011;6953;48.810;9.204;2023-08-30T13:27:20;0.10;;;0.10;;
13764;SDS011;6953;48.810;9.204;2023-08-30T13:29:46;0.10;;;0.10;;
13764;SDS011;6953;48.810;9.204;2023-08-30T13:32:11;0.10;;;0.10;;
13764;SDS011;6953;48.810;9.204;2023-08-30T13:34:37;0.10;;;0.10;;
13764;SDS011;6953;48.810;9.204;2023-08-30T13:37:03;0.00;;;0.00;;
13764;SDS011;6953;48.810;9.204;2023-08-30T13:39:29;0.00;;;0.00;;
13764;SDS011;6953;48.810;9.204;2023-08-30T13:41:54;0.10;;;0.10;;
13764;SDS011;6953;48.810;9.204;2023-08-30T13:44:19;0.00;;;0.00;;
13764;SDS011;6953;48.810;9.204;2023-08-30T13:46:45;0.10;;;0.10;;
13764;SDS011;6953;48.810;9.204;2023-08-30T13:49:13;0.10;;;0.10;;
13764;SDS011;6953;48.810;9.204;2023-08-30T13:51:38;0.00;;;0.00;;
13764;SDS011;6953;48.810;9.204;2023-08-30T13:54:04;0.00;;;0.00;;
13764;SDS011;6953;48.810;9.204;2023-08-30T13:56:30;0.00;;;0.00;;
13764;SDS011;6953;48.810;9.204;2023-08-30T13:58:56;0.10;;;0.10;;
13764;SDS011;6953;48.810;9.204;2023-08-30T14:01:22;0.00;;;0.00;;
13764;SDS011;6953;48.810;9.204;2023-08-30T14:03:48;0.00;;;0.00;;
13764;SDS011;6953;48.810;9.204;2023-08-30T14:06:13;0.00;;;0.00;;
13764;SDS011;6953;48.810;9.204;2023-08-30T14:08:38;0.10;;;0.10;;
13764;SDS011;6953;48.810;9.204;2023-08-30T14:11:04;0.00;;;0.00;;
13764;SDS011;6953;48.810;9.204;2023-08-30T14:13:29;0.00;;;0.00;;
13764;SDS011;6953;48.810;9.204;2023-08-30T14:15:58;0.00;;;0.00;;
13764;SDS011;6953;48.810;9.204;2023-08-30T14:18:24;0.10;;;0.10;;
13764;SDS011;6953;48.810;9.204;2023-08-30T14:20:50;0.10;;;0.10;;
13764;SDS011;6953;48.810;9.204;2023-08-30T14:23:15;0.10;;;0.10;;
13764;SDS011;6953;48.810;9.204;2023-08-30T14:25:40;0.00;;;0.00;;
13764;SDS011;6953;48.810;9.204;2023-08-30T14:28:05;0.10;;;0.10;;
13764;SDS011;6953;48.810;9.204;2023-08-30T14:30:31;0.10;;;0.10;;
13764;SDS011;6953;48.810;9.204;2023-08-30T14:32:56;0.10;;;0.10;;
13764;SDS011;6953;48.810;9.204;2023-08-30T14:35:21;0.10;;;0.10;;
13764;SDS011;6953;48.810;9.204;2023-08-30T14:37:49;0.10;;;0.10;;
13764;SDS011;6953;48.810;9.204;2023-08-30T14:40:15;0.10;;;0.10;;
13764;SDS011;6953;48.810;9.204;2023-08-30T14:42:41;0.10;;;0.10;;
13764;SDS011;6953;48.810;9.204;2023-08-30T14:45:06;0.10;;;0.10;;
13764;SDS011;6953;48.810;9.204;2023-08-30T14:47:32;0.10;;;0.10;;
13764;SDS011;6953;48.810;9.204;2023-08-30T14:49:58;0.10;;;0.10;;
13764;SDS011;6953;48.810;9.204;2023-08-30T14:52:24;0.10;;;0.10;;
13764;SDS011;6953;48.810;9.204;2023-08-30T14:54:49;0.10;;;0.10;;